Time;durP1;ratioP1;P1;durP2;ratioP2;P2;SDS_P1;SDS_P2;PMS_P1;PMS_P2;Temp;Humidity;BMP_temperature;BMP_pressure;BME280_temperature;BME280_humidity;BME280_pressure;Samples;Min_cycle;Max_cycle;Signal;HPM_P1;HPM_P2
2022/12/13 00:00:13;;;;;;;26.05;18.33;;;6.70;80.60;;;;;;5033561;28;20419;-71
2022/12/13 00:02:40;;;;;;;29.02;20.45;;;6.70;80.60;;;;;;5034851;28;20022;-70
2022/12/13 00:05:07;;;;;;;28.25;19.20;;;6.80;80.40;;;;;;5034770;28;20096;-71
2022/12/13 00:07:33;;;;;;;27.10;19.67;;;6.70;80.40;;;;;;5034926;28;20040;-68
2022/12/13 00:09:59;;;;;;;29.27;19.08;;;6.70;80.50;;;;;;5034809;28;20018;-69
2022/12/13 00:12:25;;;;;;;29.08;19.50;;;6.70;80.50;;;;;;5032911;28;20025;-69
2022/12/13 00:14:50;;;;;;;32.85;20.40;;;6.60;80.40;;;;;;5034766;28;20093;-68
2022/12/13 00:17:16;;;;;;;26.73;19.23;;;6.70;80.40;;;;;;5034505;28;20427;-69
2022/12/13 00:19:41;;;;;;;26.70;18.95;;;6.70;80.50;;;;;;5034466;28;20040;-70
2022/12/13 00:22:07;;;;;;;30.55;18.95;;;6.70;80.50;;;;;;5034403;28;20071;-68
2022/12/13 00:24:32;;;;;;;30.02;19.10;;;6.70;80.50;;;;;;5034654;28;20425;-68
2022/12/13 00:26:58;;;;;;;31.13;20.55;;;6.70;80.30;;;;;;5034491;28;20099;-71
2022/12/13 00:29:24;;;;;;;30.50;19.85;;;6.70;80.30;;;;;;5034523;28;20079;-69
2022/12/13 00:31:50;;;;;;;30.50;20.05;;;6.70;80.40;;;;;;5034121;28;20060;-69
2022/12/13 00:34:15;;;;;;;32.70;20.70;;;6.60;80.60;;;;;;5034282;28;20439;-70
2022/12/13 00:36:41;;;;;;;32.97;20.95;;;6.60;80.40;;;;;;5034217;28;20029;-70
2022/12/13 00:39:06;;;;;;;30.25;20.50;;;6.60;80.60;;;;;;5034253;28;20038;-72
2022/12/13 00:41:34;;;;;;;25.63;19.85;;;6.50;80.70;;;;;;5033660;28;20030;-68
2022/12/13 00:44:01;;;;;;;29.10;18.70;;;6.40;80.80;;;;;;5032962;28;20063;-68
2022/12/13 00:46:28;;;;;;;30.00;19.65;;;6.40;80.80;;;;;;5033965;28;20378;-66
2022/12/13 00:48:56;;;;;;;30.13;19.63;;;6.50;80.60;;;;;;5034128;28;20032;-66
2022/12/13 00:51:22;;;;;;;28.92;19.40;;;6.50;80.80;;;;;;5033916;28;20385;-66
2022/12/13 00:53:48;;;;;;;28.42;19.02;;;6.40;80.90;;;;;;5034416;28;20028;-67
2022/12/13 00:56:17;;;;;;;26.30;19.23;;;6.40;81.60;;;;;;5033413;28;20021;-67
2022/12/13 00:58:42;;;;;;;31.23;20.25;;;6.40;81.00;;;;;;5034068;28;20021;-68
2022/12/13 01:01:11;;;;;;;28.52;20.38;;;6.30;80.90;;;;;;5033226;28;20026;-67
2022/12/13 01:03:38;;;;;;;28.50;19.25;;;6.30;81.00;;;;;;5033880;28;20049;-67
2022/12/13 01:06:12;;;;;;;29.98;19.38;;;6.40;81.20;;;;;;5032391;28;20079;-68
2022/12/13 01:08:38;;;;;;;26.25;18.27;;;6.40;80.90;;;;;;5033599;28;20013;-67
2022/12/13 01:11:06;;;;;;;29.05;19.42;;;6.40;80.80;;;;;;5033347;28;20091;-67
2022/12/13 01:13:33;;;;;;;27.42;19.13;;;6.40;80.90;;;;;;5033342;28;20083;-67
2022/12/13 01:16:02;;;;;;;28.15;19.23;;;6.40;81.00;;;;;;5032333;28;20502;-69
2022/12/13 01:18:27;;;;;;;26.25;19.30;;;6.30;80.90;;;;;;5033405;28;20503;-71
2022/12/13 01:20:58;;;;;;;29.80;19.20;;;6.30;81.00;;;;;;5033192;28;20037;-67
2022/12/13 01:23:25;;;;;;;26.75;17.88;;;6.30;80.90;;;;;;5033305;28;20437;-71
2022/12/13 01:25:50;;;;;;;29.52;19.88;;;6.30;81.00;;;;;;5033497;28;20078;-71
2022/12/13 01:28:16;;;;;;;28.67;18.83;;;6.30;81.00;;;;;;5033050;28;20113;-70
2022/12/13 01:30:41;;;;;;;25.42;18.10;;;6.30;81.00;;;;;;5033329;28;20029;-69
2022/12/13 01:33:07;;;;;;;24.77;17.63;;;6.30;81.10;;;;;;5033174;28;20045;-71
2022/12/13 01:35:35;;;;;;;28.15;19.25;;;6.20;81.00;;;;;;5033396;28;20029;-72
2022/12/13 01:38:01;;;;;;;32.88;19.25;;;6.10;81.40;;;;;;5032863;28;20383;-71
2022/12/13 01:40:26;;;;;;;26.75;17.85;;;6.20;81.20;;;;;;5033010;28;20037;-69
2022/12/13 01:42:52;;;;;;;29.35;17.70;;;6.20;81.20;;;;;;5032777;28;20033;-67
2022/12/13 01:45:24;;;;;;;29.52;19.10;;;6.20;80.90;;;;;;5033179;28;20033;-70
2022/12/13 01:47:59;;;;;;;29.88;18.52;;;6.20;81.30;;;;;;5032928;28;20406;-69
2022/12/13 01:50:33;;;;;;;24.85;18.05;;;6.10;81.30;;;;;;5033059;28;20378;-72
2022/12/13 01:52:59;;;;;;;27.27;17.90;;;6.10;81.20;;;;;;5032686;28;20025;-69
2022/12/13 01:55:28;;;;;;;30.40;18.95;;;6.20;80.90;;;;;;5033105;28;20018;-69
2022/12/13 01:57:56;;;;;;;29.05;18.33;;;6.10;81.00;;;;;;5032742;28;20113;-69
2022/12/13 02:00:24;;;;;;;25.67;17.05;;;6.10;81.00;;;;;;5032906;28;20475;-68
2022/12/13 02:02:50;;;;;;;25.30;17.95;;;6.00;81.20;;;;;;5032743;28;20035;-69
2022/12/13 02:05:27;;;;;;;29.20;19.25;;;6.00;81.50;;;;;;5032869;28;20029;-67
2022/12/13 02:07:54;;;;;;;25.92;18.55;;;6.00;81.50;;;;;;5032580;28;20022;-72
2022/12/13 02:10:20;;;;;;;27.38;17.15;;;6.00;81.50;;;;;;5032809;28;20390;-67
2022/12/13 02:12:45;;;;;;;25.05;17.42;;;6.00;81.50;;;;;;5032941;28;20026;-67
2022/12/13 02:15:17;;;;;;;26.17;17.48;;;6.00;81.40;;;;;;5036826;28;20033;-68
2022/12/13 02:18:09;;;;;;;25.30;17.55;;;6.00;81.30;;;;;;5037040;28;20014;-69
2022/12/13 02:20:51;;;;;;;26.30;17.85;;;5.90;81.50;;;;;;5036733;28;20052;-68
2022/12/13 02:23:39;;;;;;;26.55;17.65;;;5.90;81.50;;;;;;5036459;28;20386;-67
2022/12/13 02:26:40;;;;;;;24.50;17.80;;;5.90;81.60;;;;;;5035671;28;20072;-67
2022/12/13 02:29:45;;;;;;;27.27;17.88;;;5.90;81.50;;;;;;5036554;28;20044;-68
2022/12/13 02:32:29;;;;;;;28.42;17.85;;;5.90;81.40;;;;;;5036501;28;20036;-68
2022/12/13 02:35:09;;;;;;;28.98;18.10;;;5.90;81.40;;;;;;5036873;28;20017;-68
2022/12/13 02:38:09;;;;;;;25.35;17.38;;;5.90;81.30;;;;;;5036381;28;20108;-68
2022/12/13 02:40:46;;;;;;;26.67;17.95;;;5.90;81.30;;;;;;5036283;28;20112;-67
2022/12/13 02:43:26;;;;;;;26.02;17.13;;;5.80;81.40;;;;;;5036283;28;20029;-67
2022/12/13 02:45:59;;;;;;;28.02;18.52;;;5.80;81.40;;;;;;5036559;28;20108;-68
2022/12/13 02:48:31;;;;;;;24.95;17.58;;;5.80;81.30;;;;;;5036234;28;20021;-70
2022/12/13 02:50:58;;;;;;;24.10;16.97;;;5.70;81.40;;;;;;5034949;28;20074;-69
2022/12/13 02:53:25;;;;;;;27.70;17.35;;;5.70;81.40;;;;;;5036366;28;20021;-68
2022/12/13 02:55:51;;;;;;;26.33;17.63;;;5.80;81.20;;;;;;5036215;28;20439;-68
2022/12/13 02:58:21;;;;;;;25.50;18.85;;;5.70;81.30;;;;;;5036043;28;20509;-68
2022/12/13 03:01:02;;;;;;;28.85;18.23;;;5.70;81.20;;;;;;5035915;28;20386;-67
2022/12/13 03:03:40;;;;;;;25.95;17.73;;;5.70;81.30;;;;;;5036201;28;20025;-67
2022/12/13 03:06:28;;;;;;;27.55;17.23;;;5.70;81.20;;;;;;5035705;28;20070;-68
2022/12/13 03:09:24;;;;;;;24.77;17.27;;;5.70;81.30;;;;;;5035947;28;20501;-68
2022/12/13 03:15:15;;;;;;;24.10;16.48;;;5.70;81.00;;;;;;5035332;28;20047;-71
2022/12/13 03:17:48;;;;;;;27.35;16.67;;;5.60;81.00;;;;;;5035694;28;20026;-68
2022/12/13 03:20:22;;;;;;;27.30;16.98;;;5.60;81.10;;;;;;5035383;28;20037;-68
2022/12/13 03:22:47;;;;;;;29.55;17.80;;;5.60;81.20;;;;;;5035764;28;20072;-69
2022/12/13 03:25:14;;;;;;;24.85;16.75;;;5.60;81.10;;;;;;5035152;28;20429;-71
2022/12/13 03:27:40;;;;;;;25.95;17.27;;;5.60;81.00;;;;;;5035698;28;20098;-68
2022/12/13 03:30:06;;;;;;;25.83;17.05;;;5.70;80.80;;;;;;5035343;28;20029;-71
2022/12/13 03:32:31;;;;;;;27.80;16.73;;;5.60;80.70;;;;;;5035601;28;20116;-73
2022/12/13 03:34:57;;;;;;;24.60;17.13;;;5.60;80.70;;;;;;5035046;28;20534;-74
2022/12/13 03:37:23;;;;;;;24.40;17.05;;;5.60;80.80;;;;;;5035535;28;20029;-73
2022/12/13 03:39:48;;;;;;;26.23;17.63;;;5.50;80.70;;;;;;5035210;28;20076;-68
2022/12/13 03:42:14;;;;;;;27.73;18.00;;;5.60;80.70;;;;;;5035151;28;20044;-70
2022/12/13 03:44:39;;;;;;;28.88;17.48;;;5.50;80.70;;;;;;5035390;28;20036;-68
2022/12/13 03:47:05;;;;;;;25.27;15.95;;;5.60;80.60;;;;;;5035270;28;20075;-70
2022/12/13 03:49:31;;;;;;;29.73;16.10;;;5.50;80.50;;;;;;5034849;28;20017;-68
2022/12/13 03:51:56;;;;;;;25.90;17.05;;;5.60;80.60;;;;;;5035199;28;20148;-72
2022/12/13 03:54:22;;;;;;;26.77;17.42;;;5.50;80.50;;;;;;5035020;28;20025;-74
2022/12/13 03:56:47;;;;;;;28.63;17.48;;;5.60;80.50;;;;;;5033960;28;20147;-70
2022/12/13 03:59:13;;;;;;;25.35;16.60;;;5.50;80.40;;;;;;5034981;28;20106;-70
2022/12/13 04:01:38;;;;;;;23.23;17.08;;;5.50;80.40;;;;;;5035001;28;20373;-70
2022/12/13 04:04:04;;;;;;;31.88;18.27;;;5.50;80.40;;;;;;5034902;28;20475;-68
2022/12/13 04:06:29;;;;;;;25.30;17.08;;;5.60;80.40;;;;;;5034767;28;20025;-68
2022/12/13 04:08:55;;;;;;;28.10;17.33;;;5.50;80.40;;;;;;5036177;28;20028;-69
2022/12/13 04:14:04;;;;;;;25.60;16.30;;;5.50;80.50;;;;;;5032986;28;20390;-71
2022/12/13 04:16:30;;;;;;;25.48;17.55;;;5.50;80.40;;;;;;5032866;28;20470;-71
2022/12/13 04:18:55;;;;;;;24.00;15.88;;;5.40;80.40;;;;;;5033306;28;20057;-74
2022/12/13 04:21:21;;;;;;;28.20;17.15;;;5.40;80.50;;;;;;5033528;28;20028;-74
2022/12/13 04:23:46;;;;;;;23.52;15.68;;;5.50;80.30;;;;;;5033887;28;20029;-74
2022/12/13 04:26:12;;;;;;;26.33;16.38;;;5.50;80.50;;;;;;5033402;28;20017;-72
2022/12/13 04:28:38;;;;;;;25.90;16.10;;;5.40;80.60;;;;;;5033413;28;20041;-69
2022/12/13 04:31:03;;;;;;;23.05;16.10;;;5.40;80.30;;;;;;5033475;28;20033;-70
2022/12/13 04:33:31;;;;;;;26.48;16.05;;;5.50;80.20;;;;;;5033253;28;20029;-73
2022/12/13 04:35:57;;;;;;;23.38;16.00;;;5.40;80.10;;;;;;5032540;28;20021;-71
2022/12/13 04:38:22;;;;;;;23.92;16.25;;;5.40;80.10;;;;;;5033299;28;20021;-70
2022/12/13 04:40:48;;;;;;;24.92;15.98;;;5.30;80.30;;;;;;5033254;28;20544;-68
2022/12/13 04:43:14;;;;;;;20.42;16.02;;;5.30;80.40;;;;;;5033248;28;20025;-72
2022/12/13 04:45:39;;;;;;;24.33;16.33;;;5.20;80.40;;;;;;5033263;28;20036;-72
2022/12/13 04:48:05;;;;;;;24.92;16.52;;;5.30;80.40;;;;;;5032278;28;20026;-68
2022/12/13 04:50:30;;;;;;;24.50;15.35;;;5.30;80.30;;;;;;5033068;28;20160;-73
2022/12/13 04:52:56;;;;;;;25.88;15.38;;;5.30;80.20;;;;;;5033327;28;20450;-71
2022/12/13 04:55:21;;;;;;;21.95;15.70;;;5.30;80.10;;;;;;5031940;28;20453;-70
2022/12/13 04:57:47;;;;;;;23.45;15.57;;;5.20;80.30;;;;;;5032909;28;20014;-70
2022/12/13 05:00:13;;;;;;;24.70;15.63;;;5.20;80.00;;;;;;5032602;28;20486;-69
2022/12/13 05:02:42;;;;;;;22.60;16.13;;;5.20;80.00;;;;;;5039379;28;20382;-67
2022/12/13 05:05:09;;;;;;;23.90;16.83;;;5.30;80.00;;;;;;5045841;28;20029;-67
2022/12/13 05:07:36;;;;;;;23.40;16.20;;;5.30;79.80;;;;;;5046081;28;20108;-73
2022/12/13 05:10:01;;;;;;;24.92;16.83;;;5.20;79.90;;;;;;5046477;28;20676;-69
2022/12/13 05:12:27;;;;;;;24.60;16.23;;;5.20;79.90;;;;;;5008406;28;1041766;-69
2022/12/13 05:14:52;;;;;;;23.45;16.17;;;5.20;80.00;;;;;;5049496;28;20318;-72
2022/12/13 05:17:19;;;;;;;22.90;15.82;;;5.20;79.90;;;;;;5047996;28;20052;-68
2022/12/13 05:19:44;;;;;;;24.45;16.42;;;5.20;79.90;;;;;;5048604;28;20074;-70
2022/12/13 05:22:19;;;;;;;22.23;15.20;;;5.20;79.80;;;;;;5040803;28;20032;-67
2022/12/13 05:24:44;;;;;;;23.75;16.17;;;5.30;79.60;;;;;;5052342;28;20040;-70
2022/12/13 05:27:10;;;;;;;22.23;14.70;;;5.20;79.50;;;;;;5053349;28;20021;-70
2022/12/13 05:29:37;;;;;;;20.52;15.00;;;5.10;79.70;;;;;;5053244;28;20036;-72
2022/12/13 05:32:03;;;;;;;23.17;15.23;;;5.10;79.70;;;;;;5053046;28;20043;-70
2022/12/13 05:34:28;;;;;;;26.80;16.08;;;5.10;79.80;;;;;;5053035;28;20525;-72
2022/12/13 05:36:54;;;;;;;22.27;15.30;;;5.20;79.70;;;;;;5053223;28;20017;-70
2022/12/13 05:39:20;;;;;;;22.88;14.75;;;5.10;79.50;;;;;;5051280;28;20075;-68
2022/12/13 05:41:45;;;;;;;25.20;15.70;;;5.10;79.70;;;;;;5052936;28;20029;-68
2022/12/13 05:44:12;;;;;;;22.67;15.85;;;5.10;79.50;;;;;;5053193;28;20033;-68
2022/12/13 05:46:38;;;;;;;21.65;14.57;;;5.10;79.40;;;;;;5052698;28;20021;-69
2022/12/13 05:49:03;;;;;;;18.58;13.23;;;5.00;79.50;;;;;;5052675;28;20078;-67
2022/12/13 05:51:29;;;;;;;21.85;14.10;;;5.20;79.20;;;;;;5053482;28;20033;-67
2022/12/13 05:53:54;;;;;;;22.83;14.70;;;5.10;79.00;;;;;;5052807;28;20021;-67
2022/12/13 05:56:20;;;;;;;21.98;15.35;;;5.10;79.10;;;;;;5052957;28;20057;-68
2022/12/13 05:58:45;;;;;;;22.10;13.55;;;3.80;77.50;;;;;;5052809;28;20020;-69
2022/12/13 06:01:13;;;;;;;24.38;14.38;;;2.20;81.60;;;;;;5043792;28;20585;-69
2022/12/13 06:03:40;;;;;;;22.42;13.50;;;1.20;86.20;;;;;;5032654;28;20021;-69
2022/12/13 06:06:07;;;;;;;21.30;14.05;;;0.70;88.30;;;;;;5031610;28;20716;-69
2022/12/13 06:08:33;;;;;;;22.08;14.18;;;0.40;90.10;;;;;;5031383;28;20018;-68
2022/12/13 06:11:01;;;;;;;25.98;14.38;;;0.20;90.50;;;;;;5032862;28;20017;-69
2022/12/13 06:13:26;;;;;;;23.35;14.27;;;0.10;91.10;;;;;;5032125;28;20091;-68
2022/12/13 06:15:53;;;;;;;24.02;14.77;;;0.10;91.20;;;;;;5032745;28;20029;-69
2022/12/13 06:18:19;;;;;;;26.30;14.88;;;-0.10;91.40;;;;;;5032600;28;20553;-69
2022/12/13 06:20:46;;;;;;;20.63;13.30;;;-0.10;92.10;;;;;;5038273;28;20119;-67
2022/12/13 06:23:12;;;;;;;25.63;13.50;;;-0.20;91.60;;;;;;5048520;28;20028;-71
2022/12/13 06:25:37;;;;;;;20.20;14.10;;;0.40;93.50;;;;;;5037106;28;20033;-70
2022/12/13 06:28:03;;;;;;;19.88;13.60;;;1.50;92.10;;;;;;5039652;28;20439;-67
2022/12/13 06:30:29;;;;;;;21.17;14.18;;;2.30;90.70;;;;;;5043142;28;20044;-68
2022/12/13 06:32:55;;;;;;;22.35;14.50;;;2.80;89.40;;;;;;5038586;28;20086;-68
2022/12/13 06:35:20;;;;;;;26.02;14.75;;;3.20;87.90;;;;;;5049750;28;20477;-71
2022/12/13 06:37:51;;;;;;;20.17;14.23;;;3.50;86.80;;;;;;5033878;28;20047;-70
2022/12/13 06:40:17;;;;;;;20.30;13.70;;;3.80;85.60;;;;;;5039996;28;20068;-71
2022/12/13 06:42:42;;;;;;;23.35;13.95;;;4.10;84.40;;;;;;5040691;28;20061;-71
2022/12/13 06:45:08;;;;;;;22.83;15.32;;;4.10;84.10;;;;;;5047497;28;20039;-70
2022/12/13 06:47:34;;;;;;;23.08;14.65;;;4.30;83.80;;;;;;5052118;28;20024;-71
2022/12/13 06:49:59;;;;;;;19.58;13.90;;;4.40;83.50;;;;;;5040011;28;20026;-67
2022/12/13 06:52:25;;;;;;;22.90;14.90;;;4.50;83.10;;;;;;5048282;28;20017;-67
2022/12/13 06:54:50;;;;;;;21.63;14.02;;;4.70;82.50;;;;;;5048136;28;20378;-68
2022/12/13 06:57:16;;;;;;;19.75;14.30;;;4.50;83.30;;;;;;5047012;28;20453;-71
2022/12/13 06:59:42;;;;;;;26.70;14.82;;;4.90;82.90;;;;;;5047174;28;20025;-68
2022/12/13 07:02:08;;;;;;;22.35;15.15;;;4.80;81.40;;;;;;5054369;28;20035;-71
2022/12/13 07:04:33;;;;;;;23.20;15.18;;;4.70;81.10;;;;;;5046524;28;20034;-70
2022/12/13 07:06:59;;;;;;;23.25;14.82;;;4.70;80.90;;;;;;5043140;28;20028;-69
2022/12/13 07:09:24;;;;;;;24.77;15.68;;;5.10;80.50;;;;;;5045602;28;20023;-66
2022/12/13 07:11:50;;;;;;;22.50;15.63;;;5.00;79.70;;;;;;5048471;28;20021;-68
2022/12/13 07:14:16;;;;;;;22.15;15.02;;;5.10;79.80;;;;;;5050254;28;20040;-70
2022/12/13 07:16:42;;;;;;;23.23;16.05;;;5.00;79.10;;;;;;5045939;28;20029;-69
2022/12/13 07:19:08;;;;;;;23.15;15.38;;;4.80;79.90;;;;;;5050435;28;20098;-70
2022/12/13 07:21:35;;;;;;;22.10;15.18;;;4.90;80.20;;;;;;5052128;28;20033;-69
2022/12/13 07:24:01;;;;;;;21.33;14.60;;;4.80;80.10;;;;;;5040808;28;20163;-68
2022/12/13 07:26:26;;;;;;;29.70;16.83;;;5.00;80.10;;;;;;5050250;28;20509;-67
2022/12/13 07:28:52;;;;;;;26.83;17.00;;;5.00;80.10;;;;;;5055010;28;20032;-69
2022/12/13 07:31:18;;;;;;;21.85;15.25;;;5.10;80.20;;;;;;5054538;28;20017;-68
2022/12/13 07:33:43;;;;;;;23.50;15.45;;;5.10;79.20;;;;;;5055247;28;20036;-67
2022/12/13 07:36:15;;;;;;;26.73;16.05;;;4.90;80.10;;;;;;5054090;28;20025;-66
2022/12/13 07:38:41;;;;;;;22.33;14.68;;;4.90;80.80;;;;;;5049672;28;20476;-66
2022/12/13 07:41:07;;;;;;;24.23;15.13;;;4.90;81.30;;;;;;5051409;28;20401;-72
2022/12/13 07:43:33;;;;;;;27.40;16.38;;;5.10;80.80;;;;;;5054093;28;20025;-69
2022/12/13 07:46:00;;;;;;;25.17;16.17;;;5.00;80.30;;;;;;5039401;28;20033;-67
2022/12/13 07:48:26;;;;;;;23.50;16.08;;;4.90;81.10;;;;;;5044719;28;20028;-70
2022/12/13 07:50:53;;;;;;;21.45;15.30;;;4.80;81.70;;;;;;5042285;28;20462;-66
2022/12/13 07:53:18;;;;;;;24.42;16.00;;;5.00;81.30;;;;;;5050147;28;20035;-67
2022/12/13 07:55:44;;;;;;;26.13;16.15;;;5.00;81.00;;;;;;5045088;28;20092;-68
2022/12/13 07:58:12;;;;;;;24.42;15.80;;;5.10;80.70;;;;;;5054548;28;20025;-69
2022/12/13 08:00:40;;;;;;;27.63;16.17;;;5.00;80.50;;;;;;5052828;28;20037;-69
2022/12/13 08:03:06;;;;;;;25.15;15.57;;;5.20;80.10;;;;;;5040936;28;20482;-71
2022/12/13 08:05:32;;;;;;;23.02;15.55;;;5.20;80.00;;;;;;5048854;28;20584;-63
2022/12/13 08:07:59;;;;;;;24.63;16.08;;;5.00;80.40;;;;;;5040471;28;20071;-68
2022/12/13 08:10:25;;;;;;;24.85;15.70;;;4.90;80.80;;;;;;5049849;28;20486;-68
2022/12/13 08:12:51;;;;;;;23.20;15.13;;;5.00;81.00;;;;;;5053615;28;20036;-67
2022/12/13 08:15:16;;;;;;;28.35;16.25;;;5.10;80.10;;;;;;5053944;28;20029;-69
2022/12/13 08:17:42;;;;;;;29.35;17.48;;;5.00;80.40;;;;;;5050390;28;20367;-70
2022/12/13 08:20:08;;;;;;;24.10;16.02;;;5.20;79.40;;;;;;5052214;28;20080;-70
2022/12/13 08:22:34;;;;;;;24.75;16.52;;;5.20;79.40;;;;;;5049330;28;20950;-64
2022/12/13 08:24:59;;;;;;;25.27;16.67;;;5.20;79.30;;;;;;5049951;28;20077;-71
2022/12/13 08:27:26;;;;;;;28.88;18.60;;;5.20;79.60;;;;;;5051621;28;20025;-70
2022/12/13 08:29:51;;;;;;;26.20;16.88;;;5.20;79.70;;;;;;5051620;28;20116;-69
2022/12/13 08:32:17;;;;;;;23.27;16.15;;;5.20;79.70;;;;;;5053400;28;20099;-69
2022/12/13 08:34:44;;;;;;;26.70;17.90;;;5.30;79.30;;;;;;5053003;28;20028;-68
2022/12/13 08:37:10;;;;;;;25.40;18.13;;;5.40;79.30;;;;;;5054039;28;20033;-70
2022/12/13 08:39:37;;;;;;;31.17;18.05;;;5.30;79.40;;;;;;5053205;28;20033;-70
2022/12/13 08:42:14;;;;;;;25.95;17.85;;;5.30;79.60;;;;;;5052335;28;20082;-69
2022/12/13 08:44:40;;;;;;;25.42;16.58;;;5.30;79.50;;;;;;5042857;28;20038;-69
2022/12/13 08:47:05;;;;;;;26.42;16.30;;;5.30;79.40;;;;;;5046962;28;20032;-70
2022/12/13 08:49:31;;;;;;;27.05;18.17;;;5.20;79.60;;;;;;5053467;28;20032;-68
2022/12/13 08:51:57;;;;;;;22.75;16.13;;;5.30;79.10;;;;;;5040291;28;20057;-64
2022/12/13 08:54:22;;;;;;;29.25;17.70;;;5.20;79.40;;;;;;5042119;28;20112;-67
2022/12/13 08:56:48;;;;;;;27.70;17.65;;;5.20;80.00;;;;;;5033303;28;20037;-69
2022/12/13 08:59:14;;;;;;;23.85;17.85;;;5.20;79.80;;;;;;5047885;28;20413;-70
2022/12/13 09:01:39;;;;;;;24.98;16.63;;;5.30;79.80;;;;;;5044205;28;20036;-70
2022/12/13 09:04:05;;;;;;;27.25;17.30;;;5.30;79.80;;;;;;5051503;28;20099;-71
2022/12/13 09:06:30;;;;;;;24.75;17.85;;;5.40;79.40;;;;;;5049950;28;20045;-72
2022/12/13 09:08:56;;;;;;;24.23;16.67;;;5.40;79.40;;;;;;5051897;28;20024;-71
2022/12/13 09:11:21;;;;;;;22.45;17.17;;;5.50;79.00;;;;;;5047242;28;20367;-67
2022/12/13 09:13:48;;;;;;;26.27;18.58;;;5.50;79.10;;;;;;5049373;28;20017;-65
2022/12/13 09:16:17;;;;;;;25.80;18.00;;;5.50;79.00;;;;;;5051919;28;20081;-68
2022/12/13 09:18:43;;;;;;;27.50;17.77;;;5.60;79.00;;;;;;5052433;28;20466;-64
2022/12/13 09:21:11;;;;;;;27.15;17.92;;;5.60;78.10;;;;;;5050765;28;20094;-69
2022/12/13 09:23:39;;;;;;;23.80;18.35;;;5.60;78.20;;;;;;5050728;28;20032;-64
2022/12/13 09:26:04;;;;;;;26.48;18.40;;;5.80;77.90;;;;;;5045762;28;20069;-66
2022/12/13 09:28:30;;;;;;;23.55;17.58;;;5.70;77.80;;;;;;5031953;28;20049;-63
2022/12/13 09:30:56;;;;;;;23.50;16.73;;;5.60;78.00;;;;;;5036006;28;20391;-63
2022/12/13 09:33:22;;;;;;;26.85;17.92;;;5.60;78.10;;;;;;5050845;28;20032;-64
2022/12/13 09:35:48;;;;;;;28.65;17.67;;;5.60;78.20;;;;;;5050367;28;20017;-64
2022/12/13 09:38:14;;;;;;;23.95;16.55;;;5.60;78.20;;;;;;5048038;28;20064;-64
2022/12/13 09:40:43;;;;;;;26.83;16.63;;;5.60;78.20;;;;;;5049692;28;20494;-62
2022/12/13 09:43:12;;;;;;;21.02;14.93;;;5.60;78.10;;;;;;5050867;28;20028;-63
2022/12/13 09:45:42;;;;;;;23.80;16.52;;;5.50;78.80;;;;;;5047424;28;20029;-63
2022/12/13 09:48:07;;;;;;;25.40;16.70;;;5.70;78.10;;;;;;5050528;28;20024;-63
2022/12/13 09:50:34;;;;;;;25.08;16.52;;;5.40;78.70;;;;;;5046717;28;20100;-62
2022/12/13 09:53:03;;;;;;;25.13;17.35;;;5.60;78.50;;;;;;5046837;28;20028;-64
2022/12/13 09:55:38;;;;;;;24.73;17.38;;;5.60;78.40;;;;;;5046831;28;20037;-64
2022/12/13 09:58:19;;;;;;;28.05;17.52;;;5.70;78.40;;;;;;5046667;28;20020;-64
2022/12/13 10:00:50;;;;;;;21.77;15.57;;;5.60;78.20;;;;;;5046518;28;20028;-64
2022/12/13 10:03:18;;;;;;;23.80;18.08;;;5.80;79.20;;;;;;5050438;28;20110;-63
2022/12/13 10:05:59;;;;;;;26.23;17.20;;;5.80;78.70;;;;;;5044164;28;20040;-62
2022/12/13 10:08:53;;;;;;;23.60;17.35;;;5.80;78.00;;;;;;5042506;28;20587;-64
2022/12/13 10:11:20;;;;;;;22.08;16.77;;;5.80;78.00;;;;;;5044600;28;20516;-63
2022/12/13 10:14:17;;;;;;;29.92;18.55;;;5.70;78.50;;;;;;5047745;28;20367;-62
2022/12/13 10:16:48;;;;;;;25.05;17.92;;;5.70;78.90;;;;;;5039822;28;20029;-63
2022/12/13 10:19:21;;;;;;;26.55;18.00;;;5.70;79.10;;;;;;5040714;28;20033;-63
2022/12/13 10:21:47;;;;;;;26.83;18.08;;;5.80;79.10;;;;;;5044529;28;20021;-64
2022/12/13 10:24:16;;;;;;;28.30;18.15;;;5.80;78.90;;;;;;5047766;28;20600;-64
2022/12/13 10:26:41;;;;;;;26.27;18.75;;;5.90;78.40;;;;;;5050406;28;20049;-64
2022/12/13 10:29:07;;;;;;;24.02;18.77;;;6.00;78.20;;;;;;5049452;28;20063;-64
2022/12/13 10:31:47;;;;;;;25.52;18.05;;;6.00;77.80;;;;;;5048269;28;20504;-64
2022/12/13 10:34:26;;;;;;;27.00;17.75;;;6.10;77.80;;;;;;5042588;28;20061;-66
2022/12/13 10:36:52;;;;;;;26.15;18.88;;;6.10;77.50;;;;;;5044173;28;20565;-65
2022/12/13 10:39:39;;;;;;;26.00;17.10;;;6.20;77.40;;;;;;5048709;28;20058;-64
2022/12/13 10:42:11;;;;;;;28.05;16.98;;;6.10;78.20;;;;;;5049823;28;20568;-66
2022/12/13 10:44:37;;;;;;;26.20;17.15;;;6.10;77.90;;;;;;5051150;28;20063;-64
2022/12/13 10:47:09;;;;;;;22.70;17.08;;;6.00;78.60;;;;;;5049671;28;20442;-63
2022/12/13 10:49:49;;;;;;;23.35;16.65;;;6.20;78.30;;;;;;5042967;28;20029;-64
2022/12/13 10:52:39;;;;;;;27.45;16.45;;;6.30;78.00;;;;;;5046984;28;20119;-64
2022/12/13 10:55:25;;;;;;;24.15;16.30;;;6.30;78.10;;;;;;5049237;28;20108;-65
2022/12/13 10:57:54;;;;;;;24.08;16.63;;;6.40;77.70;;;;;;5042831;28;20036;-64
2022/12/13 11:00:50;;;;;;;22.92;15.45;;;6.60;76.40;;;;;;5046600;28;20590;-63
2022/12/13 11:03:31;;;;;;;20.38;15.23;;;6.50;77.90;;;;;;5044264;28;20116;-65
2022/12/13 11:06:14;;;;;;;24.40;15.23;;;6.30;77.60;;;;;;5042203;28;20037;-64
2022/12/13 11:08:40;;;;;;;23.67;16.00;;;6.50;77.80;;;;;;5040923;28;20067;-67
2022/12/13 11:11:07;;;;;;;23.02;15.77;;;6.70;75.80;;;;;;5048761;28;20040;-64
2022/12/13 11:13:52;;;;;;;24.20;16.23;;;6.70;75.60;;;;;;5052040;28;20108;-68
2022/12/13 11:16:23;;;;;;;24.50;15.85;;;6.60;75.80;;;;;;5053076;28;20430;-71
2022/12/13 11:18:59;;;;;;;21.13;15.37;;;6.70;76.10;;;;;;5047374;28;20100;-65
2022/12/13 11:21:32;;;;;;;22.83;16.58;;;6.60;77.00;;;;;;5049224;28;20033;-70
2022/12/13 11:24:01;;;;;;;24.98;16.77;;;6.50;76.50;;;;;;5045018;28;20497;-66
2022/12/13 11:26:28;;;;;;;27.40;16.63;;;6.30;77.10;;;;;;5045130;28;20416;-64
2022/12/13 11:29:11;;;;;;;22.15;16.23;;;6.40;77.80;;;;;;5048685;28;20114;-63
2022/12/13 11:31:54;;;;;;;26.58;17.23;;;6.30;77.50;;;;;;5046765;28;20068;-64
2022/12/13 11:34:25;;;;;;;;;;;6.20;77.60;;;;;;5045319;28;20032;-64
2022/12/13 11:36:57;;;;;;;23.05;16.92;;;6.00;77.60;;;;;;5047668;28;19915;-67
2022/12/13 11:39:28;;;;;;;24.45;16.25;;;6.20;78.70;;;;;;5048345;28;20025;-63
2022/12/13 11:42:17;;;;;;;24.15;16.08;;;6.40;77.80;;;;;;5047358;28;20076;-63
2022/12/13 11:44:50;;;;;;;24.77;16.10;;;6.50;76.10;;;;;;5045297;28;20052;-63
2022/12/13 11:47:23;;;;;;;24.00;15.52;;;6.60;75.90;;;;;;5052811;28;20064;-63
2022/12/13 11:49:49;;;;;;;22.90;15.32;;;6.60;76.00;;;;;;5052126;28;20087;-64
2022/12/13 11:52:22;;;;;;;22.52;15.73;;;6.70;77.00;;;;;;5043849;28;20025;-65
2022/12/13 11:54:47;;;;;;;22.60;15.18;;;6.70;74.80;;;;;;5051450;28;20028;-64
2022/12/13 11:57:24;;;;;;;25.45;15.48;;;6.60;75.20;;;;;;5045546;28;20033;-65
2022/12/13 12:00:00;;;;;;;18.83;13.85;;;6.50;75.80;;;;;;5039552;28;20036;-65
2022/12/13 12:02:33;;;;;;;22.08;14.48;;;6.80;75.50;;;;;;5039698;28;20105;-64
2022/12/13 12:05:16;;;;;;;22.60;14.75;;;6.60;74.50;;;;;;5041761;28;20033;-65
2022/12/13 12:07:47;;;;;;;21.08;15.65;;;6.50;75.50;;;;;;5040624;28;20305;-64
2022/12/13 12:10:13;;;;;;;21.63;15.07;;;6.70;76.50;;;;;;5038307;28;20036;-65
2022/12/13 12:12:43;;;;;;;19.08;14.15;;;6.80;77.30;;;;;;5046293;28;20029;-64
2022/12/13 12:15:25;;;;;;;21.05;14.93;;;7.00;75.60;;;;;;5043845;28;20059;-67
2022/12/13 12:17:51;;;;;;;23.10;14.45;;;6.90;75.50;;;;;;5042650;28;20044;-65
2022/12/13 12:20:46;;;;;;;19.42;14.15;;;6.80;75.10;;;;;;5045386;28;20029;-65
2022/12/13 12:23:37;;;;;;;23.92;15.15;;;6.70;75.70;;;;;;5039817;28;20025;-65
2022/12/13 12:26:12;;;;;;;23.05;15.50;;;6.70;76.10;;;;;;5034669;28;20502;-68
2022/12/13 12:28:59;;;;;;;23.63;15.50;;;6.80;76.50;;;;;;5042777;28;20027;-66
2022/12/13 12:31:25;;;;;;;22.63;15.65;;;6.70;76.10;;;;;;5038594;28;20115;-70
2022/12/13 12:34:12;;;;;;;23.23;15.88;;;6.80;76.30;;;;;;5042854;28;20148;-67
2022/12/13 12:37:08;;;;;;;21.58;14.75;;;6.90;77.40;;;;;;5045134;28;20048;-66
2022/12/13 12:39:42;;;;;;;24.67;14.98;;;7.00;77.50;;;;;;5040480;28;20041;-71
2022/12/13 12:42:35;;;;;;;23.05;16.17;;;7.10;77.10;;;;;;5048550;28;20440;-71
2022/12/13 12:45:26;;;;;;;23.35;14.88;;;7.30;76.30;;;;;;5047882;28;20036;-67
2022/12/13 12:48:17;;;;;;;24.00;16.00;;;7.20;76.70;;;;;;5039421;28;20032;-69
2022/12/13 12:51:05;;;;;;;24.83;15.85;;;7.40;75.60;;;;;;5038177;28;20342;-68
2022/12/13 12:53:45;;;;;;;22.60;15.65;;;7.30;75.50;;;;;;5032867;28;20036;-67
2022/12/13 12:56:18;;;;;;;24.30;15.93;;;7.30;75.90;;;;;;5039179;28;20056;-75